createdAt,value
2022-10-19T00:01:16.085Z,29.97
2022-10-19T00:03:45.799Z,36.80
2022-10-19T00:06:26.625Z,33.63
2022-10-19T00:11:24.654Z,29.55
2022-10-19T00:13:55.607Z,30.70
2022-10-19T00:16:28.197Z,24.75
2022-10-19T00:18:58.036Z,26.25
2022-10-19T00:21:25.839Z,30.33
2022-10-19T00:23:53.908Z,37.35
2022-10-19T00:26:22.217Z,33.42
2022-10-19T00:28:50.611Z,33.33
2022-10-19T00:31:18.610Z,29.10
2022-10-19T00:33:49.215Z,30.67
2022-10-19T00:36:21.202Z,38.10
2022-10-19T00:38:48.956Z,28.50
2022-10-19T00:41:16.915Z,27.65
2022-10-19T00:44:13.953Z,31.38
2022-10-19T00:46:43.688Z,26.60
2022-10-19T00:49:14.032Z,32.60
2022-10-19T00:51:44.043Z,33.13
2022-10-19T00:54:11.816Z,34.70
2022-10-19T00:56:41.215Z,39.85
2022-10-19T00:59:09.526Z,33.40
2022-10-19T01:01:37.203Z,34.88
2022-10-19T01:04:05.146Z,23.83
2022-10-19T01:06:33.329Z,22.58
2022-10-19T01:09:01.238Z,21.52
2022-10-19T01:12:00.734Z,20.55
2022-10-19T01:14:56.243Z,23.80
2022-10-19T01:17:56.249Z,18.35
2022-10-19T01:20:59.444Z,15.40
2022-10-19T01:23:51.443Z,20.67
2022-10-19T01:28:54.187Z,18.88
2022-10-19T01:31:32.698Z,21.08
2022-10-19T01:34:20.149Z,20.88
2022-10-19T01:37:00.096Z,21.63
2022-10-19T01:39:37.896Z,18.10
2022-10-19T01:42:30.280Z,19.55
2022-10-19T01:45:03.740Z,23.50
2022-10-19T01:47:38.404Z,32.85
2022-10-19T01:50:27.345Z,26.27
2022-10-19T01:52:55.278Z,27.48
2022-10-19T01:55:24.707Z,26.77
2022-10-19T01:57:59.525Z,28.33
2022-10-19T02:00:28.726Z,28.48
2022-10-19T02:02:56.637Z,27.58
2022-10-19T02:05:32.583Z,27.48
2022-10-19T02:08:04.377Z,25.98
2022-10-19T02:10:32.449Z,29.70
2022-10-19T02:13:03.647Z,26.40
2022-10-19T02:15:32.053Z,27.20
2022-10-19T02:18:00.062Z,28.55
2022-10-19T02:20:29.936Z,28.02
2022-10-19T02:22:57.606Z,30.02
2022-10-19T02:25:25.954Z,24.65
2022-10-19T02:27:53.685Z,34.67
2022-10-19T02:30:22.579Z,27.08
2022-10-19T02:32:50.195Z,27.95
2022-10-19T02:35:18.104Z,20.85
2022-10-19T02:37:45.815Z,23.92
2022-10-19T02:40:14.738Z,27.98
2022-10-19T02:42:47.627Z,26.63
2022-10-19T02:45:21.183Z,31.57
2022-10-19T02:48:00.576Z,23.48
2022-10-19T02:50:28.907Z,25.02
2022-10-19T02:53:00.425Z,22.17
2022-10-19T02:55:29.220Z,23.30
2022-10-19T02:57:57.551Z,29.40
2022-10-19T03:00:25.425Z,26.55
2022-10-19T03:02:53.183Z,24.55
2022-10-19T03:05:21.261Z,26.75
2022-10-19T03:07:48.849Z,26.05
2022-10-19T03:10:16.874Z,30.02
2022-10-19T03:12:44.552Z,32.58
2022-10-19T03:15:27.360Z,22.75
2022-10-19T03:17:57.445Z,29.20
2022-10-19T03:20:25.256Z,33.15
2022-10-19T03:25:20.598Z,27.73
2022-10-19T03:27:48.245Z,29.27
2022-10-19T03:30:16.172Z,22.77
2022-10-19T03:32:46.435Z,26.85
2022-10-19T03:35:14.026Z,29.35
2022-10-19T03:37:42.710Z,25.65
2022-10-19T03:40:10.497Z,24.90
2022-10-19T03:42:39.080Z,29.55
2022-10-19T03:45:07.291Z,30.15
2022-10-19T03:47:35.276Z,33.60
2022-10-19T03:50:06.192Z,33.90
2022-10-19T03:52:34.754Z,26.50
2022-10-19T03:55:02.514Z,30.63
2022-10-19T03:57:30.314Z,32.92
2022-10-19T03:59:58.068Z,32.08
2022-10-19T04:02:25.731Z,33.75
2022-10-19T04:04:57.257Z,31.10
2022-10-19T04:07:25.016Z,33.67
2022-10-19T04:09:52.594Z,30.20
2022-10-19T04:12:21.354Z,28.95
2022-10-19T04:14:57.708Z,30.05
2022-10-19T04:17:26.189Z,33.55
2022-10-19T04:19:54.534Z,34.72
2022-10-19T04:22:23.489Z,30.95
2022-10-19T04:24:51.440Z,32.17
2022-10-19T04:27:19.502Z,34.80
2022-10-19T04:29:47.561Z,32.42
2022-10-19T04:32:15.407Z,30.80
2022-10-19T04:34:43.130Z,34.58
2022-10-19T04:37:10.746Z,30.40
2022-10-19T04:39:41.144Z,40.00
2022-10-19T04:42:09.445Z,32.45
2022-10-19T04:44:37.140Z,27.85
2022-10-19T04:47:05.168Z,34.17
2022-10-19T04:49:33.048Z,35.50
2022-10-19T04:52:03.931Z,35.67
2022-10-19T04:54:32.107Z,28.67
2022-10-19T04:56:59.797Z,32.88
2022-10-19T04:59:28.354Z,30.52
2022-10-19T05:01:56.103Z,33.15
2022-10-19T05:04:23.877Z,32.25
2022-10-19T05:06:52.066Z,31.10
2022-10-19T05:09:19.982Z,33.05
2022-10-19T05:11:50.438Z,32.58
2022-10-19T05:14:20.111Z,32.60
2022-10-19T05:16:47.698Z,29.88
2022-10-19T05:19:18.239Z,29.58
2022-10-19T05:21:45.838Z,27.30
2022-10-19T05:24:13.943Z,24.80
2022-10-19T05:26:43.489Z,26.05
2022-10-19T05:29:12.735Z,26.42
2022-10-19T05:31:40.813Z,27.80
2022-10-19T05:34:08.852Z,25.88
2022-10-19T05:36:38.183Z,26.20
2022-10-19T05:39:12.758Z,24.70
2022-10-19T05:41:42.918Z,22.85
2022-10-19T05:44:14.511Z,22.33
2022-10-19T05:46:42.304Z,21.58
2022-10-19T05:49:11.460Z,29.70
2022-10-19T05:51:39.206Z,20.33
2022-10-19T05:54:08.166Z,29.77
2022-10-19T05:56:36.072Z,25.85
2022-10-19T05:59:05.636Z,27.38
2022-10-19T06:01:34.740Z,29.40
2022-10-19T06:04:03.767Z,30.17
2022-10-19T06:06:34.288Z,30.80
2022-10-19T06:09:01.994Z,28.17
2022-10-19T06:11:31.321Z,104.28
2022-10-19T06:14:02.824Z,59.22
2022-10-19T06:16:31.985Z,91.22
2022-10-19T06:18:59.932Z,57.05
2022-10-19T06:21:30.834Z,57.80
2022-10-19T06:24:00.717Z,38.05
2022-10-19T06:26:28.955Z,52.70
2022-10-19T06:29:00.341Z,43.35
2022-10-19T06:31:29.455Z,62.78
2022-10-19T06:33:57.151Z,40.75
2022-10-19T06:36:27.062Z,45.75
2022-10-19T06:38:55.179Z,30.30
2022-10-19T06:41:22.948Z,30.80
2022-10-19T06:43:51.979Z,28.88
2022-10-19T06:46:22.207Z,26.08
2022-10-19T06:48:55.169Z,20.70
2022-10-19T06:51:23.500Z,39.67
2022-10-19T06:53:56.629Z,34.78
2022-10-19T06:56:25.731Z,25.55
2022-10-19T06:58:54.184Z,35.05
2022-10-19T07:01:22.444Z,18.80
2022-10-19T07:03:53.433Z,26.98
2022-10-19T07:08:49.641Z,31.88
2022-10-19T07:11:21.068Z,20.23
2022-10-19T07:13:48.679Z,24.63
2022-10-19T07:16:20.627Z,25.08
2022-10-19T07:18:53.151Z,14.43
2022-10-19T07:21:22.005Z,39.83
2022-10-19T07:23:49.677Z,15.77
2022-10-19T07:26:21.541Z,27.80
2022-10-19T07:28:49.464Z,22.25
2022-10-19T07:31:20.393Z,26.58
2022-10-19T07:33:52.225Z,27.92
2022-10-19T07:36:19.870Z,21.85
2022-10-19T07:38:47.733Z,15.30
2022-10-19T07:41:17.145Z,23.27
2022-10-19T07:43:45.213Z,11.88
2022-10-19T07:46:20.460Z,29.40
2022-10-19T07:48:48.148Z,17.48
2022-10-19T07:51:18.717Z,18.65
2022-10-19T07:53:46.670Z,15.57
2022-10-19T07:56:16.483Z,17.08
2022-10-19T07:58:44.313Z,15.93
2022-10-19T08:01:14.278Z,17.38
2022-10-19T08:04:31.678Z,18.08
2022-10-19T08:06:32.188Z,17.27
2022-10-19T08:09:03.855Z,15.68
2022-10-19T08:11:34.804Z,14.63
2022-10-19T08:14:04.062Z,15.68
2022-10-19T08:16:37.673Z,20.98
2022-10-19T08:19:18.925Z,17.00
2022-10-19T08:21:47.252Z,14.35
2022-10-19T08:24:16.472Z,15.70
2022-10-19T08:26:44.607Z,21.83
2022-10-19T08:29:17.824Z,14.95
2022-10-19T08:31:48.096Z,13.52
2022-10-19T08:34:21.379Z,17.95
2022-10-19T08:36:49.187Z,8.80
2022-10-19T08:39:18.414Z,10.95
2022-10-19T08:42:01.256Z,13.77
2022-10-19T08:44:35.253Z,11.65
2022-10-19T08:47:34.144Z,12.95
2022-10-19T08:50:02.174Z,10.15
2022-10-19T08:52:34.686Z,11.70
2022-10-19T08:55:15.120Z,11.35
2022-10-19T08:58:00.338Z,14.77
2022-10-19T09:00:52.504Z,18.95
2022-10-19T09:03:37.543Z,9.82
2022-10-19T09:06:22.185Z,10.48
2022-10-19T09:08:51.469Z,24.33
2022-10-19T09:11:26.177Z,16.13
2022-10-19T09:14:21.992Z,11.85
2022-10-19T09:16:49.927Z,9.27
2022-10-19T09:19:25.843Z,9.23
2022-10-19T09:22:08.128Z,15.13
2022-10-19T09:24:43.121Z,13.63
2022-10-19T09:27:35.782Z,8.98
2022-10-19T09:30:11.317Z,11.30
2022-10-19T09:32:39.160Z,13.98
2022-10-19T09:35:17.678Z,13.02
2022-10-19T09:37:47.231Z,12.05
2022-10-19T09:40:18.324Z,8.65
2022-10-19T09:42:45.936Z,9.43
2022-10-19T09:45:17.405Z,10.10
2022-10-19T09:47:46.544Z,11.00
2022-10-19T09:50:22.241Z,18.13
2022-10-19T09:52:57.325Z,10.10
2022-10-19T09:55:29.248Z,10.48
2022-10-19T09:58:15.537Z,10.45
2022-10-19T10:00:52.769Z,12.88
2022-10-19T10:03:46.564Z,10.95
2022-10-19T10:06:15.216Z,11.93
2022-10-19T10:08:53.267Z,6.65
2022-10-19T10:11:28.179Z,9.88
2022-10-19T10:13:56.076Z,9.23
2022-10-19T10:16:25.801Z,16.50
2022-10-19T10:19:13.861Z,12.40
2022-10-19T10:21:54.756Z,11.80
2022-10-19T10:24:27.570Z,8.55
2022-10-19T10:26:59.986Z,11.13
2022-10-19T10:29:28.955Z,11.88
2022-10-19T10:32:04.776Z,15.07
2022-10-19T10:34:49.371Z,12.05
2022-10-19T10:37:23.422Z,9.98
2022-10-19T10:39:56.721Z,11.32
2022-10-19T10:42:33.337Z,13.32
2022-10-19T10:45:01.193Z,15.70
2022-10-19T10:47:30.466Z,17.33
2022-10-19T10:50:00.033Z,15.25
2022-10-19T10:52:29.236Z,12.70
2022-10-19T10:55:08.446Z,18.17
2022-10-19T10:57:40.203Z,10.73
2022-10-19T11:00:19.450Z,13.95
2022-10-19T11:02:49.004Z,14.38
2022-10-19T11:05:24.252Z,17.40
2022-10-19T11:07:59.212Z,16.08
2022-10-19T11:10:30.504Z,12.85
2022-10-19T11:13:18.141Z,21.50
2022-10-19T11:16:01.165Z,15.57
2022-10-19T11:18:44.476Z,13.70
2022-10-19T11:21:14.920Z,15.50
2022-10-19T11:23:52.154Z,18.30
2022-10-19T11:26:31.757Z,21.58
2022-10-19T11:29:43.278Z,15.40
2022-10-19T11:32:37.195Z,16.23
2022-10-19T11:35:42.546Z,16.05
2022-10-19T11:39:01.136Z,12.55
2022-10-19T11:41:47.196Z,19.55
2022-10-19T11:44:46.998Z,16.48
2022-10-19T11:47:33.662Z,12.98
2022-10-19T11:50:10.794Z,21.63
2022-10-19T11:53:03.101Z,12.32
2022-10-19T11:55:55.658Z,14.07
2022-10-19T11:58:34.473Z,13.98
2022-10-19T12:01:35.006Z,15.50
2022-10-19T12:04:28.723Z,16.55
2022-10-19T12:07:11.843Z,14.48
2022-10-19T12:09:48.402Z,18.60
2022-10-19T12:12:23.765Z,13.77
2022-10-19T12:14:53.715Z,15.48
2022-10-19T12:17:25.828Z,17.25
2022-10-19T12:19:56.033Z,19.27
2022-10-19T12:22:25.749Z,14.88
2022-10-19T12:24:55.543Z,17.88
2022-10-19T12:27:38.720Z,16.77
2022-10-19T12:30:08.438Z,12.35
2022-10-19T12:33:22.218Z,15.27
2022-10-19T12:36:19.688Z,18.20
2022-10-19T12:39:01.073Z,15.63
2022-10-19T12:41:35.896Z,16.17
2022-10-19T12:44:21.580Z,18.02
2022-10-19T12:46:58.779Z,15.25
2022-10-19T12:49:30.782Z,10.80
2022-10-19T12:51:59.365Z,17.80
2022-10-19T12:54:31.964Z,19.75
2022-10-19T12:57:01.154Z,17.10
2022-10-19T12:59:36.109Z,19.55
2022-10-19T13:02:05.918Z,16.17
2022-10-19T13:04:34.915Z,21.15
2022-10-19T13:07:04.590Z,20.30
2022-10-19T13:09:34.398Z,17.58
2022-10-19T13:12:21.618Z,19.13
2022-10-19T13:15:35.293Z,19.40
2022-10-19T13:18:14.580Z,17.58
2022-10-19T13:20:52.760Z,18.65
2022-10-19T13:23:26.948Z,17.10
2022-10-19T13:26:23.818Z,21.60
2022-10-19T13:28:53.642Z,21.83
2022-10-19T13:31:27.271Z,16.83
2022-10-19T13:33:55.624Z,15.40
2022-10-19T13:36:23.535Z,24.40
2022-10-19T13:38:56.068Z,17.58
2022-10-19T13:41:28.243Z,14.35
2022-10-19T13:44:12.594Z,16.70
2022-10-19T13:47:08.938Z,21.23
2022-10-19T13:50:26.669Z,21.08
2022-10-19T13:53:24.843Z,20.00
2022-10-19T13:56:05.609Z,21.75
2022-10-19T13:58:45.062Z,21.58
2022-10-19T14:01:18.451Z,20.48
2022-10-19T14:04:06.948Z,21.05
2022-10-19T14:06:35.205Z,17.88
2022-10-19T14:09:24.890Z,23.02
2022-10-19T14:11:56.145Z,19.65
2022-10-19T14:14:24.705Z,28.52
2022-10-19T14:16:59.659Z,25.30
2022-10-19T14:19:44.883Z,26.13
2022-10-19T14:22:38.601Z,25.92
2022-10-19T14:25:16.910Z,23.27
2022-10-19T14:27:56.615Z,28.05
2022-10-19T14:30:28.620Z,25.40
2022-10-19T14:32:59.455Z,30.45
2022-10-19T14:35:32.140Z,35.13
2022-10-19T14:38:00.336Z,31.27
2022-10-19T14:40:32.650Z,29.10
2022-10-19T14:43:00.982Z,23.02
2022-10-19T14:45:30.069Z,24.55
2022-10-19T14:48:04.667Z,24.02
2022-10-19T14:50:42.093Z,24.17
2022-10-19T14:53:24.860Z,25.23
2022-10-19T14:55:53.446Z,27.38
2022-10-19T14:58:21.107Z,26.73
2022-10-19T15:00:49.299Z,28.73
2022-10-19T15:03:26.006Z,30.95
2022-10-19T15:06:00.144Z,25.80
2022-10-19T15:08:35.137Z,31.77
2022-10-19T15:11:03.982Z,25.35
2022-10-19T15:13:35.109Z,28.38
2022-10-19T15:16:07.056Z,29.48
2022-10-19T15:18:49.778Z,29.95
2022-10-19T15:21:19.972Z,34.10
2022-10-19T15:23:51.560Z,33.30
2022-10-19T15:26:26.023Z,34.88
2022-10-19T15:28:54.854Z,33.38
2022-10-19T15:31:27.484Z,32.70
2022-10-19T15:33:56.928Z,35.65
2022-10-19T15:36:24.709Z,33.63
2022-10-19T15:39:06.405Z,30.02
2022-10-19T15:41:46.095Z,36.60
2022-10-19T15:44:53.486Z,30.75
2022-10-19T15:47:23.984Z,34.03
2022-10-19T15:49:54.700Z,35.88
2022-10-19T15:52:24.264Z,36.42
2022-10-19T15:54:57.371Z,31.17
2022-10-19T15:57:36.094Z,31.50
2022-10-19T16:00:15.123Z,37.05
2022-10-19T16:02:43.152Z,29.27
2022-10-19T16:05:11.662Z,35.55
2022-10-19T16:07:41.009Z,36.90
2022-10-19T16:10:22.013Z,39.53
2022-10-19T16:12:49.935Z,35.95
2022-10-19T16:15:22.534Z,30.58
2022-10-19T16:17:54.220Z,36.65
2022-10-19T16:20:23.222Z,37.65
2022-10-19T16:22:51.122Z,37.97
2022-10-19T16:25:18.831Z,37.67
2022-10-19T16:27:46.604Z,36.35
2022-10-19T16:30:14.221Z,31.08
2022-10-19T16:32:43.611Z,30.38
2022-10-19T16:35:11.818Z,30.23
2022-10-19T16:37:40.336Z,30.58
2022-10-19T16:40:09.600Z,27.13
2022-10-19T16:42:37.617Z,32.10
2022-10-19T16:45:05.988Z,29.67
2022-10-19T16:47:34.475Z,33.33
2022-10-19T16:50:02.938Z,27.80
2022-10-19T16:52:33.311Z,28.27
2022-10-19T16:55:01.954Z,31.38
2022-10-19T16:57:29.995Z,33.63
2022-10-19T16:59:57.806Z,31.27
2022-10-19T17:02:25.452Z,37.60
2022-10-19T17:04:53.331Z,37.20
2022-10-19T17:07:21.156Z,37.20
2022-10-19T17:09:52.286Z,40.85
2022-10-19T17:12:25.239Z,40.35
2022-10-19T17:14:59.490Z,40.35
2022-10-19T17:17:40.177Z,40.80
2022-10-19T17:20:11.329Z,46.67
2022-10-19T17:22:39.771Z,41.47
2022-10-19T17:25:07.613Z,36.60
2022-10-19T17:27:35.529Z,39.70
2022-10-19T17:30:03.776Z,41.58
2022-10-19T17:32:33.069Z,40.00
2022-10-19T17:35:01.149Z,44.35
2022-10-19T17:37:28.934Z,49.63
2022-10-19T17:39:56.497Z,41.08
2022-10-19T17:42:24.358Z,41.80
2022-10-19T17:44:54.109Z,37.15
2022-10-19T17:47:21.750Z,40.55
2022-10-19T17:49:49.672Z,40.05
2022-10-19T17:52:17.477Z,36.22
2022-10-19T17:54:54.739Z,39.05
2022-10-19T17:57:36.029Z,41.70
2022-10-19T18:00:05.276Z,34.15
2022-10-19T18:02:40.710Z,40.00
2022-10-19T18:05:09.106Z,39.45
2022-10-19T18:07:36.965Z,41.00
2022-10-19T18:10:05.822Z,33.20
2022-10-19T18:12:35.373Z,34.90
2022-10-19T18:15:03.429Z,30.80
2022-10-19T18:17:31.822Z,32.13
2022-10-19T18:19:59.677Z,37.28
2022-10-19T18:22:27.613Z,36.08
2022-10-19T18:24:55.425Z,32.65
2022-10-19T18:27:23.053Z,31.25
2022-10-19T18:29:50.984Z,32.13
2022-10-19T18:32:19.725Z,37.03
2022-10-19T18:34:47.428Z,34.97
2022-10-19T18:37:15.011Z,38.53
2022-10-19T18:39:42.784Z,39.10
2022-10-19T18:42:12.891Z,43.97
2022-10-19T18:44:41.413Z,43.83
2022-10-19T18:47:09.049Z,44.58
2022-10-19T18:49:36.570Z,44.47
2022-10-19T18:52:04.209Z,41.10
2022-10-19T18:54:32.192Z,43.72
2022-10-19T18:57:00.199Z,41.03
2022-10-19T19:02:00.773Z,44.08
2022-10-19T19:04:28.447Z,42.47
2022-10-19T19:06:57.361Z,45.50
2022-10-19T19:09:26.433Z,45.03
2022-10-19T19:11:57.854Z,48.80
2022-10-19T19:14:26.553Z,47.33
2022-10-19T19:16:56.610Z,45.22
2022-10-19T19:19:25.984Z,47.20
2022-10-19T19:21:54.460Z,50.85
2022-10-19T19:24:22.822Z,49.92
2022-10-19T19:26:52.129Z,48.55
2022-10-19T19:29:20.335Z,50.10
2022-10-19T19:31:48.199Z,55.35
2022-10-19T19:34:15.997Z,65.68
2022-10-19T19:36:48.166Z,61.28
2022-10-19T19:39:18.851Z,54.58
2022-10-19T19:41:47.034Z,56.22
2022-10-19T19:44:14.660Z,56.05
2022-10-19T19:46:42.571Z,58.60
2022-10-19T19:49:10.467Z,57.90
2022-10-19T19:51:38.068Z,62.00
2022-10-19T19:54:06.955Z,66.43
2022-10-19T19:56:34.874Z,66.78
2022-10-19T19:59:05.297Z,63.58
2022-10-19T20:01:33.813Z,59.63
2022-10-19T20:06:31.445Z,64.13
2022-10-19T20:08:59.100Z,71.13
2022-10-19T20:11:28.340Z,65.90
2022-10-19T20:13:56.219Z,59.95
2022-10-19T20:16:28.342Z,59.05
2022-10-19T20:19:09.241Z,64.00
2022-10-19T20:21:37.179Z,63.13
2022-10-19T20:24:06.945Z,58.67
2022-10-19T20:26:35.415Z,60.60
2022-10-19T20:29:03.504Z,56.70
2022-10-19T20:31:32.001Z,54.03
2022-10-19T20:33:59.606Z,57.55
2022-10-19T20:36:27.277Z,50.13
2022-10-19T20:38:56.471Z,58.53
2022-10-19T20:41:25.773Z,54.70
2022-10-19T20:43:53.941Z,46.22
2022-10-19T20:46:23.324Z,50.03
2022-10-19T20:48:51.003Z,56.25
2022-10-19T20:51:25.990Z,53.58
2022-10-19T20:53:57.380Z,63.20
2022-10-19T20:56:26.767Z,62.88
2022-10-19T20:58:58.141Z,61.65
2022-10-19T21:01:26.722Z,68.68
2022-10-19T21:03:56.234Z,62.42
2022-10-19T21:06:26.117Z,65.97
2022-10-19T21:08:54.190Z,71.45
2022-10-19T21:11:22.964Z,78.97
2022-10-19T21:13:57.760Z,68.85
2022-10-19T21:16:37.757Z,83.18
2022-10-19T21:19:06.986Z,79.00
2022-10-19T21:21:36.151Z,74.55
2022-10-19T21:24:15.288Z,90.88
2022-10-19T21:26:43.091Z,79.43
2022-10-19T21:29:11.430Z,82.70
2022-10-19T21:31:43.052Z,92.50
2022-10-19T21:34:19.150Z,104.28
2022-10-19T21:36:46.994Z,99.80
2022-10-19T21:39:17.515Z,105.63
2022-10-19T21:41:45.416Z,96.97
2022-10-19T21:44:13.945Z,90.40
2022-10-19T21:46:43.722Z,82.90
2022-10-19T21:49:12.297Z,87.65
2022-10-19T21:51:51.151Z,81.55
2022-10-19T21:54:24.847Z,92.65
2022-10-19T21:56:53.507Z,89.63
2022-10-19T21:59:21.228Z,83.88
2022-10-19T22:01:50.343Z,93.53
2022-10-19T22:04:18.534Z,88.13
2022-10-19T22:06:46.283Z,81.85
2022-10-19T22:09:16.216Z,81.22
2022-10-19T22:11:44.150Z,87.93
2022-10-19T22:14:12.801Z,103.07
2022-10-19T22:16:40.822Z,94.75
2022-10-19T22:19:10.865Z,88.85
2022-10-19T22:21:39.777Z,90.13
2022-10-19T22:24:10.693Z,94.32
2022-10-19T22:26:48.092Z,72.07
2022-10-19T22:29:15.763Z,77.15
2022-10-19T22:31:43.526Z,67.15
2022-10-19T22:34:13.523Z,71.18
2022-10-19T22:36:41.081Z,72.13
2022-10-19T22:39:08.818Z,71.20
2022-10-19T22:41:37.114Z,78.93
2022-10-19T22:44:05.114Z,73.95
2022-10-19T22:46:34.038Z,67.07
2022-10-19T22:49:02.245Z,77.45
2022-10-19T22:51:32.523Z,64.40
2022-10-19T22:54:00.733Z,61.50
2022-10-19T22:56:28.673Z,66.57
2022-10-19T22:59:00.456Z,62.78
2022-10-19T23:01:28.505Z,72.65
2022-10-19T23:03:56.662Z,66.68
2022-10-19T23:06:24.554Z,82.60
2022-10-19T23:08:53.138Z,82.38
2022-10-19T23:11:22.310Z,82.88
2022-10-19T23:13:50.082Z,85.15
2022-10-19T23:16:17.997Z,77.70
2022-10-19T23:18:45.662Z,74.90
2022-10-19T23:21:14.700Z,87.60
2022-10-19T23:23:42.584Z,83.82
2022-10-19T23:26:14.177Z,79.88
2022-10-19T23:28:43.303Z,99.05
2022-10-19T23:31:13.079Z,109.38
2022-10-19T23:33:43.201Z,90.03
2022-10-19T23:36:21.116Z,94.20
2022-10-19T23:38:49.380Z,79.85
2022-10-19T23:41:17.631Z,85.13
2022-10-19T23:43:45.610Z,90.57
2022-10-19T23:46:13.436Z,97.60
2022-10-19T23:48:42.484Z,90.55
2022-10-19T23:51:11.966Z,95.32
2022-10-19T23:53:41.728Z,94.05
2022-10-19T23:56:19.247Z,106.38
2022-10-19T23:58:47.269Z,94.05
